createdAt,value
2022-12-03T11:28:15.226Z,117.40
2022-12-03T11:30:51.370Z,105.22
2022-12-03T11:33:30.798Z,103.90
2022-12-03T11:36:03.824Z,114.38
2022-12-03T11:38:52.315Z,107.90
2022-12-03T11:41:32.985Z,107.90
2022-12-03T11:44:29.882Z,109.47
2022-12-03T11:46:58.073Z,109.32
2022-12-03T11:49:36.928Z,108.55
2022-12-03T11:52:20.568Z,112.75
2022-12-03T11:54:52.549Z,120.32
2022-12-03T11:57:33.723Z,120.47
2022-12-03T12:00:20.927Z,106.95
2022-12-03T12:02:49.253Z,109.40
2022-12-03T12:05:28.315Z,118.20
2022-12-03T12:07:56.086Z,113.80
2022-12-03T12:10:47.767Z,119.95
2022-12-03T12:13:34.826Z,111.40
2022-12-03T12:16:06.908Z,112.72
2022-12-03T12:18:55.034Z,111.68
2022-12-03T12:21:47.858Z,112.20
2022-12-03T12:27:36.028Z,106.70
2022-12-03T12:30:16.072Z,121.20
2022-12-03T12:32:50.467Z,114.75
2022-12-03T12:35:29.739Z,118.88
2022-12-03T12:38:06.485Z,113.25
2022-12-03T12:40:36.425Z,122.38
2022-12-03T12:43:15.239Z,122.78
2022-12-03T12:45:44.610Z,115.28
2022-12-03T12:48:36.713Z,107.65
2022-12-03T12:53:40.540Z,115.63
2022-12-03T12:56:31.243Z,105.20
2022-12-03T12:59:22.036Z,130.18
2022-12-03T13:01:50.236Z,117.20
2022-12-03T13:04:23.099Z,127.43
2022-12-03T13:06:53.704Z,115.90
2022-12-03T13:09:24.229Z,111.45
2022-12-03T13:11:59.034Z,111.50
2022-12-03T13:14:31.823Z,107.13
2022-12-03T13:17:02.340Z,97.03
2022-12-03T13:19:46.065Z,106.95
2022-12-03T13:22:21.197Z,104.20
2022-12-03T13:24:53.274Z,95.15
2022-12-03T13:27:20.142Z,97.63
2022-12-03T13:29:52.946Z,117.50
2022-12-03T13:32:31.062Z,100.53
2022-12-03T13:35:31.787Z,103.82
2022-12-03T13:37:59.547Z,101.47
2022-12-03T13:40:32.942Z,112.80
2022-12-03T13:43:00.127Z,116.97
2022-12-03T13:45:39.454Z,115.57
2022-12-03T13:48:23.341Z,105.75
2022-12-03T13:50:51.832Z,115.18
2022-12-03T13:53:35.729Z,106.03
2022-12-03T13:56:20.508Z,109.32
2022-12-03T13:58:47.778Z,111.18
2022-12-03T14:01:14.782Z,118.57
2022-12-03T14:03:41.753Z,116.70
2022-12-03T14:06:08.817Z,104.95
2022-12-03T14:08:35.836Z,120.45
2022-12-03T14:11:02.852Z,115.90
2022-12-03T14:13:29.809Z,112.00
2022-12-03T14:15:56.889Z,115.93
2022-12-03T14:18:23.879Z,131.10
2022-12-03T14:20:50.823Z,119.25
2022-12-03T14:23:17.850Z,123.97
2022-12-03T14:25:44.805Z,122.05
2022-12-03T14:28:11.888Z,119.32
2022-12-03T14:30:38.856Z,142.77
2022-12-03T14:33:05.846Z,116.50
2022-12-03T14:35:32.822Z,119.47
2022-12-03T14:37:59.930Z,132.07
2022-12-03T14:40:27.443Z,123.97
2022-12-03T14:42:54.442Z,121.50
2022-12-03T14:45:23.036Z,123.50
2022-12-03T14:47:50.021Z,139.60
2022-12-03T14:50:17.020Z,127.35
2022-12-03T14:52:44.109Z,121.13
2022-12-03T14:55:11.051Z,125.85
2022-12-03T14:57:38.004Z,116.50
2022-12-03T15:00:07.024Z,123.30
2022-12-03T15:02:34.194Z,130.52
2022-12-03T15:05:01.237Z,125.00
2022-12-03T15:07:28.519Z,122.15
2022-12-03T15:09:55.943Z,135.52
2022-12-03T15:12:23.205Z,132.73
2022-12-03T15:14:50.162Z,127.60
2022-12-03T15:17:23.264Z,129.32
2022-12-03T15:19:55.373Z,140.52
2022-12-03T15:22:22.698Z,123.55
2022-12-03T15:24:49.678Z,135.02
2022-12-03T15:27:16.627Z,132.05
2022-12-03T17:00:49.568Z,112.10
2022-12-03T17:03:18.117Z,116.80
2022-12-03T17:05:45.799Z,113.07
2022-12-03T17:08:13.591Z,105.25
2022-12-03T17:10:40.648Z,111.10
2022-12-03T17:13:09.646Z,99.10
2022-12-03T17:15:37.809Z,111.10
2022-12-03T17:18:05.063Z,112.97
2022-12-03T17:20:33.618Z,116.38
2022-12-03T17:23:00.928Z,105.68
2022-12-03T17:25:31.706Z,94.40
2022-12-03T17:28:01.730Z,105.55
2022-12-03T17:30:29.381Z,112.22
2022-12-03T17:32:56.326Z,103.25
2022-12-03T17:35:23.350Z,106.88
2022-12-03T17:37:50.288Z,113.38
2022-12-03T17:40:17.797Z,108.90
2022-12-03T17:42:44.816Z,107.78
2022-12-03T17:45:12.566Z,109.75
2022-12-03T17:47:39.652Z,109.88
2022-12-03T17:50:07.971Z,102.50
2022-12-03T17:52:34.975Z,98.55
2022-12-03T17:55:11.749Z,103.50
2022-12-03T17:57:41.431Z,111.95
2022-12-03T18:00:09.207Z,97.47
2022-12-03T18:02:36.169Z,106.18
2022-12-03T18:05:03.769Z,104.82
2022-12-03T18:07:30.789Z,101.20
2022-12-03T18:09:58.178Z,100.57
2022-12-03T18:12:25.129Z,95.00
2022-12-03T18:14:52.100Z,102.57
2022-12-03T18:17:19.305Z,96.78
2022-12-03T18:19:46.446Z,107.93
2022-12-03T18:22:13.452Z,113.93
2022-12-03T18:24:40.733Z,104.93
2022-12-03T18:27:07.821Z,102.82
2022-12-03T18:29:34.795Z,101.15
2022-12-03T18:32:01.862Z,100.90
2022-12-03T18:34:29.566Z,103.32
2022-12-03T18:36:56.537Z,94.78
2022-12-03T18:39:35.441Z,100.95
2022-12-03T18:42:04.276Z,107.72
2022-12-03T18:44:31.380Z,99.55
2022-12-03T18:47:00.207Z,100.47
2022-12-03T18:49:27.658Z,106.28
2022-12-03T18:51:59.288Z,101.43
2022-12-03T18:54:26.792Z,99.72
2022-12-03T18:56:53.801Z,100.28
2022-12-03T18:59:20.872Z,96.38
2022-12-03T19:01:47.952Z,101.90
2022-12-03T19:04:15.119Z,96.93
2022-12-03T19:06:42.074Z,99.47
2022-12-03T19:09:09.178Z,109.07
2022-12-03T19:11:36.229Z,101.97
2022-12-03T19:14:03.356Z,103.60
2022-12-03T19:16:30.408Z,98.22
2022-12-03T19:19:01.616Z,101.32
2022-12-03T19:21:33.858Z,93.70
2022-12-03T19:24:23.693Z,106.82
2022-12-03T19:26:49.696Z,102.47
2022-12-03T19:29:16.647Z,93.75
2022-12-03T19:31:43.725Z,113.22
2022-12-03T19:34:10.705Z,97.63
2022-12-03T19:36:37.888Z,100.10
2022-12-03T19:39:04.835Z,105.88
2022-12-03T22:03:20.616Z,88.43
2022-12-03T22:05:47.905Z,93.10
2022-12-03T22:08:14.977Z,99.13
2022-12-03T22:10:42.037Z,90.30
2022-12-03T22:13:09.061Z,94.68
2022-12-03T22:15:40.047Z,90.53
2022-12-03T22:18:07.095Z,99.75
